createdAt,value
2018-12-13T00:00:46.446Z,5.75
2018-12-13T00:03:13.917Z,7.08
2018-12-13T00:05:41.364Z,8.33
2018-12-13T00:08:08.842Z,6.35
2018-12-13T00:10:36.396Z,7.35
2018-12-13T00:13:03.868Z,6.10
2018-12-13T00:15:31.320Z,5.92
2018-12-13T00:17:58.784Z,7.83
2018-12-13T00:20:26.302Z,6.75
2018-12-13T00:22:53.960Z,6.78
2018-12-13T00:25:21.407Z,6.05
2018-12-13T00:27:49.017Z,5.45
2018-12-13T00:30:16.470Z,8.28
2018-12-13T00:32:43.933Z,6.50
2018-12-13T00:35:11.505Z,6.75
2018-12-13T00:37:38.965Z,6.25
2018-12-13T00:40:06.752Z,5.28
2018-12-13T00:42:34.226Z,6.75
2018-12-13T00:45:01.678Z,6.55
2018-12-13T00:47:29.133Z,6.67
2018-12-13T00:49:56.606Z,6.03
2018-12-13T00:52:24.057Z,5.55
2018-12-13T00:54:51.526Z,5.45
2018-12-13T00:57:18.980Z,5.53
2018-12-13T00:59:46.451Z,6.15
2018-12-13T01:02:13.888Z,6.25
2018-12-13T01:04:41.353Z,4.75
2018-12-13T01:07:08.804Z,4.75
2018-12-13T01:09:36.264Z,4.35
2018-12-13T01:12:03.713Z,5.17
2018-12-13T01:14:31.284Z,4.25
2018-12-13T01:16:58.729Z,4.60
2018-12-13T01:19:26.188Z,4.75
2018-12-13T01:21:53.636Z,4.17
2018-12-13T01:24:21.165Z,4.90
2018-12-13T01:26:48.626Z,4.50
2018-12-13T01:29:16.086Z,4.85
2018-12-13T01:31:43.538Z,4.25
2018-12-13T01:34:10.980Z,4.70
2018-12-13T01:36:38.434Z,5.10
2018-12-13T01:39:06.053Z,4.17
2018-12-13T01:41:33.518Z,4.45
2018-12-13T01:44:00.961Z,6.05
2018-12-13T01:46:28.415Z,5.20
2018-12-13T01:48:55.872Z,5.55
2018-12-13T01:51:23.489Z,5.20
2018-12-13T01:53:50.988Z,4.10
2018-12-13T01:56:18.452Z,4.60
2018-12-13T01:58:45.908Z,5.75
2018-12-13T02:01:13.368Z,5.12
2018-12-13T02:03:40.820Z,5.53
2018-12-13T02:06:08.284Z,6.40
2018-12-13T02:08:35.736Z,5.42
2018-12-13T02:11:03.290Z,6.00
2018-12-13T02:13:30.739Z,6.35
2018-12-13T02:15:58.220Z,6.67
2018-12-13T02:18:25.664Z,4.83
2018-12-13T02:20:53.122Z,5.50
2018-12-13T02:23:20.572Z,5.75
2018-12-13T02:25:48.033Z,5.90
2018-12-13T02:28:15.496Z,5.50
2018-12-13T02:30:42.957Z,7.42
2018-12-13T02:33:10.435Z,4.97
2018-12-13T02:35:37.883Z,5.75
2018-12-13T02:38:05.349Z,5.33
2018-12-13T02:40:32.866Z,4.75
2018-12-13T02:43:00.328Z,6.62
2018-12-13T02:45:27.787Z,5.45
2018-12-13T02:47:55.245Z,7.42
2018-12-13T02:50:22.697Z,5.10
2018-12-13T02:52:50.164Z,6.28
2018-12-13T02:55:17.618Z,5.87
2018-12-13T02:57:45.088Z,7.47
2018-12-13T03:00:12.883Z,5.40
2018-12-13T03:02:40.353Z,5.80
2018-12-13T03:05:07.876Z,6.53
2018-12-13T03:07:35.345Z,6.25
2018-12-13T03:10:02.969Z,6.53
2018-12-13T03:12:30.434Z,6.08
2018-12-13T03:14:57.906Z,5.92
2018-12-13T03:17:25.361Z,7.35
2018-12-13T03:19:52.840Z,4.92
2018-12-13T03:22:20.292Z,7.00
2018-12-13T03:24:47.757Z,6.78
2018-12-13T03:27:15.236Z,7.10
2018-12-13T03:29:42.793Z,5.87
2018-12-13T03:32:10.767Z,6.50
2018-12-13T03:34:38.245Z,6.40
2018-12-13T03:37:05.688Z,6.35
2018-12-13T03:39:33.169Z,5.90
2018-12-13T03:42:00.795Z,5.90
2018-12-13T03:44:28.264Z,7.12
2018-12-13T03:46:55.726Z,5.72
2018-12-13T03:49:23.192Z,5.65
2018-12-13T03:51:50.656Z,7.65
2018-12-13T03:54:18.133Z,5.30
2018-12-13T03:56:45.592Z,6.08
2018-12-13T03:59:13.077Z,6.70
2018-12-13T04:01:40.557Z,5.67
2018-12-13T04:04:08.015Z,6.40
2018-12-13T04:06:35.494Z,6.53
2018-12-13T04:09:03.480Z,6.22
2018-12-13T04:11:30.949Z,5.50
2018-12-13T04:13:58.401Z,5.20
2018-12-13T04:16:25.861Z,6.53
2018-12-13T04:18:53.313Z,6.10
2018-12-13T04:21:20.787Z,7.17
2018-12-13T04:23:48.242Z,6.70
2018-12-13T04:26:15.708Z,5.75
2018-12-13T04:28:43.156Z,6.75
2018-12-13T04:31:10.625Z,6.05
2018-12-13T04:33:38.072Z,7.20
2018-12-13T04:36:05.626Z,7.90
2018-12-13T04:38:33.112Z,5.50
2018-12-13T04:41:00.582Z,7.83
2018-12-13T04:43:28.057Z,6.47
2018-12-13T04:45:55.512Z,5.55
2018-12-13T04:48:22.997Z,5.55
2018-12-13T04:50:50.449Z,5.87
2018-12-13T04:53:17.976Z,7.45
2018-12-13T04:55:45.508Z,7.03
2018-12-13T04:58:12.985Z,5.62
2018-12-13T05:00:40.436Z,5.12
2018-12-13T05:03:07.913Z,6.65
2018-12-13T05:05:35.368Z,8.05
2018-12-13T05:08:02.837Z,7.70
2018-12-13T05:10:42.349Z,7.20
2018-12-13T05:13:09.828Z,7.75
2018-12-13T05:15:37.276Z,6.30
2018-12-13T05:18:04.832Z,6.55
2018-12-13T05:20:32.293Z,8.05
2018-12-13T05:22:59.761Z,7.25
2018-12-13T05:25:27.221Z,6.50
2018-12-13T05:27:54.692Z,7.80
2018-12-13T05:30:22.148Z,7.95
2018-12-13T05:32:49.616Z,7.37
2018-12-13T05:35:17.083Z,6.58
2018-12-13T05:37:48.250Z,7.22
2018-12-13T05:40:14.004Z,7.92
2018-12-13T05:42:41.476Z,7.65
2018-12-13T05:45:09.067Z,7.28
2018-12-13T05:47:36.717Z,6.92
2018-12-13T05:50:04.506Z,6.58
2018-12-13T05:52:31.971Z,7.92
2018-12-13T05:54:59.429Z,7.60
2018-12-13T05:57:26.901Z,6.25
2018-12-13T05:59:54.460Z,6.60
2018-12-13T06:02:21.930Z,6.83
2018-12-13T06:04:49.389Z,6.35
2018-12-13T06:07:16.867Z,8.40
2018-12-13T06:09:44.321Z,8.30
2018-12-13T06:12:11.793Z,7.75
2018-12-13T06:14:39.249Z,7.55
2018-12-13T06:17:06.719Z,8.68
2018-12-13T06:19:34.177Z,6.35
2018-12-13T06:22:01.639Z,8.08
2018-12-13T06:24:29.110Z,7.65
2018-12-13T06:26:56.580Z,8.35
2018-12-13T06:29:24.047Z,7.37
2018-12-13T06:31:51.514Z,10.05
2018-12-13T06:34:18.980Z,7.62
2018-12-13T06:36:46.460Z,6.67
2018-12-13T06:39:13.934Z,6.97
2018-12-13T06:41:41.388Z,7.22
2018-12-13T06:44:08.852Z,5.70
2018-12-13T06:46:36.309Z,8.28
2018-12-13T06:49:03.774Z,6.58
2018-12-13T06:51:31.231Z,6.42
2018-12-13T06:53:58.699Z,7.20
2018-12-13T06:56:26.321Z,7.60
2018-12-13T06:58:53.790Z,6.78
2018-12-13T07:01:21.244Z,8.95
2018-12-13T07:03:48.713Z,8.68
2018-12-13T07:06:16.169Z,9.73
2018-12-13T07:08:43.753Z,9.25
2018-12-13T07:11:11.222Z,8.03
2018-12-13T07:13:38.688Z,7.15
2018-12-13T07:16:06.144Z,7.45
2018-12-13T07:18:33.620Z,8.28
2018-12-13T07:21:01.077Z,8.33
2018-12-13T07:23:30.489Z,7.58
2018-12-13T07:25:57.949Z,7.65
2018-12-13T07:28:25.412Z,6.85
2018-12-13T07:30:52.972Z,8.03
2018-12-13T07:33:20.452Z,8.83
2018-12-13T07:35:47.992Z,10.13
2018-12-13T07:38:15.464Z,7.53
2018-12-13T07:40:42.984Z,9.15
2018-12-13T07:43:10.560Z,10.65
2018-12-13T07:45:38.020Z,6.85
2018-12-13T07:48:05.495Z,6.95
2018-12-13T07:50:32.966Z,7.92
2018-12-13T07:53:00.416Z,8.93
2018-12-13T07:55:27.897Z,7.05
2018-12-13T07:57:55.468Z,9.20
2018-12-13T08:00:22.942Z,9.28
2018-12-13T08:02:50.405Z,8.25
2018-12-13T08:05:17.940Z,8.98
2018-12-13T08:07:45.408Z,8.05
2018-12-13T08:10:12.896Z,8.63
2018-12-13T08:12:40.352Z,8.78
2018-12-13T08:15:07.897Z,8.18
2018-12-13T08:17:35.350Z,10.05
2018-12-13T08:20:03.185Z,8.13
2018-12-13T08:22:30.636Z,9.45
2018-12-13T08:24:58.112Z,9.55
2018-12-13T08:27:26.547Z,9.75
2018-12-13T08:29:54.019Z,8.50
2018-12-13T08:32:21.471Z,7.03
2018-12-13T08:34:48.942Z,9.30
2018-12-13T08:37:16.396Z,10.00
2018-12-13T08:39:43.871Z,9.95
2018-12-13T08:42:11.324Z,8.28
2018-12-13T08:44:38.797Z,10.03
2018-12-13T08:47:07.210Z,7.72
2018-12-13T08:49:34.676Z,8.28
2018-12-13T08:52:02.127Z,8.60
2018-12-13T08:54:29.637Z,8.98
2018-12-13T08:56:57.088Z,7.75
2018-12-13T08:59:24.560Z,7.62
2018-12-13T09:01:52.840Z,7.70
2018-12-13T09:04:20.616Z,8.10
2018-12-13T09:06:48.068Z,8.35
2018-12-13T09:09:15.533Z,7.67
2018-12-13T09:11:42.985Z,6.90
2018-12-13T09:14:10.444Z,8.63
2018-12-13T09:16:37.929Z,8.25
2018-12-13T09:19:05.388Z,8.05
2018-12-13T09:21:32.859Z,8.05
2018-12-13T09:24:00.416Z,6.33
2018-12-13T09:26:27.873Z,7.87
2018-12-13T09:28:55.322Z,7.75
2018-12-13T09:31:22.784Z,7.25
2018-12-13T09:33:50.243Z,7.72
2018-12-13T09:36:17.781Z,7.22
2018-12-13T09:38:45.228Z,6.67
2018-12-13T09:41:12.800Z,7.53
2018-12-13T09:43:40.249Z,8.15
2018-12-13T09:46:07.714Z,6.10
2018-12-13T09:48:35.213Z,6.60
2018-12-13T09:51:02.679Z,6.00
2018-12-13T09:53:30.128Z,6.65
2018-12-13T09:55:57.594Z,7.17
2018-12-13T09:58:25.049Z,6.65
2018-12-13T10:00:52.524Z,6.45
2018-12-13T10:03:19.976Z,5.20
2018-12-13T10:05:47.441Z,6.42
2018-12-13T10:08:14.891Z,6.87
2018-12-13T10:10:42.468Z,5.30
2018-12-13T10:13:10.806Z,6.33
2018-12-13T10:15:38.491Z,6.20
2018-12-13T10:18:05.935Z,6.25
2018-12-13T10:20:33.400Z,6.42
2018-12-13T10:23:00.849Z,6.87
2018-12-13T10:25:28.317Z,6.70
2018-12-13T10:27:55.765Z,5.25
2018-12-13T10:30:23.235Z,6.50
2018-12-13T10:32:50.757Z,6.90
2018-12-13T10:35:18.218Z,6.22
2018-12-13T10:37:45.952Z,6.00
2018-12-13T10:40:13.424Z,5.22
2018-12-13T10:42:40.876Z,5.45
2018-12-13T10:45:08.923Z,4.12
2018-12-13T10:47:36.394Z,6.15
2018-12-13T10:50:05.483Z,5.17
2018-12-13T10:52:32.944Z,5.33
2018-12-13T10:55:00.397Z,4.58
2018-12-13T10:57:27.857Z,5.28
2018-12-13T10:59:55.303Z,4.17
2018-12-13T11:02:28.385Z,5.60
2018-12-13T11:04:55.844Z,6.55
2018-12-13T11:07:23.304Z,4.87
2018-12-13T11:09:50.748Z,6.50
2018-12-13T11:12:18.209Z,5.12
2018-12-13T11:14:45.660Z,5.70
2018-12-13T11:17:13.145Z,4.42
2018-12-13T11:19:40.584Z,5.20
2018-12-13T11:22:08.058Z,4.10
2018-12-13T11:24:35.749Z,6.30
2018-12-13T11:30:25.480Z,4.62
2018-12-13T11:32:52.958Z,5.53
2018-12-13T11:35:20.433Z,4.17
2018-12-13T11:37:47.892Z,5.80
2018-12-13T11:40:15.365Z,4.87
2018-12-13T11:42:42.835Z,5.42
2018-12-13T11:45:10.472Z,4.42
2018-12-13T11:47:37.947Z,5.60
2018-12-13T11:50:05.684Z,5.25
2018-12-13T11:52:33.165Z,6.25
2018-12-13T11:58:01.801Z,4.85
2018-12-13T12:00:29.341Z,4.95
2018-12-13T12:02:56.797Z,4.75
2018-12-13T12:05:24.533Z,7.37
2018-12-13T12:07:51.993Z,5.62
2018-12-13T12:10:19.464Z,6.80
2018-12-13T12:12:46.925Z,6.05
2018-12-13T12:15:14.468Z,6.97
2018-12-13T12:17:41.933Z,6.58
2018-12-13T12:20:09.481Z,7.05
2018-12-13T12:22:36.932Z,7.05
2018-12-13T12:25:05.651Z,6.22
2018-12-13T12:27:33.178Z,6.75
2018-12-13T12:30:00.658Z,6.87
2018-12-13T12:32:28.189Z,6.90
2018-12-13T12:34:55.660Z,5.75
2018-12-13T12:37:23.140Z,6.53
2018-12-13T12:39:50.635Z,6.92
2018-12-13T12:42:18.098Z,6.30
2018-12-13T12:44:45.572Z,6.80
2018-12-13T12:47:13.028Z,6.97
2018-12-13T12:49:40.505Z,7.67
2018-12-13T12:52:07.963Z,7.12
2018-12-13T12:54:35.440Z,7.30
2018-12-13T12:57:02.905Z,5.85
2018-12-13T12:59:30.376Z,7.00
2018-12-13T13:01:57.849Z,6.70
2018-12-13T13:04:25.600Z,7.20
2018-12-13T13:06:53.057Z,7.25
2018-12-13T13:09:25.045Z,5.97
2018-12-13T13:11:50.011Z,6.15
2018-12-13T13:14:17.487Z,6.30
2018-12-13T13:16:44.948Z,7.35
2018-12-13T13:19:12.424Z,7.10
2018-12-13T13:21:39.885Z,5.85
2018-12-13T13:24:07.365Z,5.95
2018-12-13T13:26:34.838Z,6.95
2018-12-13T13:29:02.383Z,6.50
2018-12-13T13:31:29.916Z,6.58
2018-12-13T13:33:57.472Z,6.70
2018-12-13T13:36:25.080Z,5.62
2018-12-13T13:38:52.546Z,6.28
2018-12-13T13:41:20.020Z,6.30
2018-12-13T13:43:47.493Z,5.95
2018-12-13T13:46:14.963Z,7.17
2018-12-13T13:48:42.445Z,6.22
2018-12-13T13:51:09.985Z,5.83
2018-12-13T13:53:37.449Z,8.13
2018-12-13T13:56:04.928Z,5.80
2018-12-13T13:58:32.388Z,6.25
2018-12-13T14:00:59.865Z,6.00
2018-12-13T14:03:27.325Z,6.58
2018-12-13T14:05:54.800Z,6.17
2018-12-13T14:08:22.273Z,5.75
2018-12-13T14:10:49.740Z,7.50
2018-12-13T14:13:17.224Z,6.33
2018-12-13T14:15:44.702Z,7.58
2018-12-13T14:18:12.167Z,7.25
2018-12-13T14:20:39.640Z,6.95
2018-12-13T14:23:07.098Z,7.67
2018-12-13T14:25:34.569Z,6.05
2018-12-13T14:28:02.041Z,6.45
2018-12-13T14:30:29.525Z,6.80
2018-12-13T14:32:56.984Z,5.33
2018-12-13T14:35:24.448Z,7.42
2018-12-13T14:37:51.912Z,7.20
2018-12-13T14:40:19.394Z,6.42
2018-12-13T14:42:46.847Z,6.92
2018-12-13T14:45:15.265Z,5.05
2018-12-13T14:47:42.728Z,6.37
2018-12-13T14:50:10.216Z,6.35
2018-12-13T14:52:37.665Z,6.00
2018-12-13T14:55:05.276Z,5.20
2018-12-13T14:57:32.732Z,5.15
2018-12-13T15:00:00.327Z,6.58
2018-12-13T15:02:27.860Z,6.87
2018-12-13T15:04:55.709Z,7.15
2018-12-13T15:07:23.185Z,7.92
2018-12-13T15:09:51.219Z,6.87
2018-12-13T15:12:18.828Z,5.40
2018-12-13T15:14:46.296Z,6.10
2018-12-13T15:17:13.771Z,4.90
2018-12-13T15:19:41.229Z,6.25
2018-12-13T15:22:08.705Z,6.87
2018-12-13T15:24:36.181Z,5.15
2018-12-13T15:27:03.665Z,7.03
2018-12-13T15:29:31.121Z,6.80
2018-12-13T15:31:59.461Z,6.85
2018-12-13T15:34:27.429Z,6.47
2018-12-13T15:36:54.901Z,6.70
2018-12-13T15:39:22.375Z,7.15
2018-12-13T15:41:49.857Z,6.05
2018-12-13T15:44:17.315Z,6.25
2018-12-13T15:46:44.797Z,6.65
2018-12-13T15:49:12.252Z,6.97
2018-12-13T15:51:39.768Z,5.12
2018-12-13T15:54:07.219Z,5.72
2018-12-13T15:56:34.699Z,7.47
2018-12-13T15:59:02.160Z,6.42
2018-12-13T16:01:29.637Z,6.45
2018-12-13T16:03:57.336Z,8.05
2018-12-13T16:06:25.129Z,6.67
2018-12-13T16:08:52.588Z,6.22
2018-12-13T16:11:20.074Z,6.50
2018-12-13T16:13:47.528Z,7.55
2018-12-13T16:16:15.140Z,6.95
2018-12-13T16:18:42.611Z,6.65
2018-12-13T16:21:10.094Z,6.15
2018-12-13T16:23:37.556Z,7.20
2018-12-13T16:26:05.036Z,6.42
2018-12-13T16:28:33.021Z,5.72
2018-12-13T16:31:00.491Z,7.60
2018-12-13T16:33:27.968Z,7.45
2018-12-13T16:35:55.480Z,7.03
2018-12-13T16:38:23.002Z,8.43
2018-12-13T16:40:50.468Z,6.70
2018-12-13T16:43:18.047Z,6.90
2018-12-13T16:45:45.504Z,6.53
2018-12-13T16:48:12.986Z,7.60
2018-12-13T16:50:40.442Z,7.85
2018-12-13T16:53:07.917Z,6.47
2018-12-13T16:55:35.384Z,7.15
2018-12-13T16:58:02.869Z,7.50
2018-12-13T17:00:30.329Z,6.37
2018-12-13T17:02:57.801Z,6.45
2018-12-13T17:05:25.264Z,6.78
2018-12-13T17:07:52.746Z,7.58
2018-12-13T17:10:20.274Z,6.65
2018-12-13T17:12:47.749Z,8.33
2018-12-13T17:15:15.209Z,7.33
2018-12-13T17:17:42.713Z,8.38
2018-12-13T17:20:10.184Z,8.00
2018-12-13T17:22:37.693Z,8.10
2018-12-13T17:25:05.152Z,6.65
2018-12-13T17:27:32.636Z,7.03
2018-12-13T17:30:00.097Z,8.60
2018-12-13T17:32:27.600Z,8.25
2018-12-13T17:34:55.061Z,7.72
2018-12-13T17:37:22.546Z,7.85
2018-12-13T17:39:50.006Z,7.90
2018-12-13T17:42:17.481Z,7.95
2018-12-13T17:44:44.947Z,7.90
2018-12-13T17:47:12.420Z,7.45
2018-12-13T17:49:43.356Z,7.87
2018-12-13T17:52:11.460Z,9.88
2018-12-13T17:54:38.920Z,7.60
2018-12-13T17:57:06.380Z,8.15
2018-12-13T17:59:33.880Z,8.50
2018-12-13T18:02:02.861Z,8.93
2018-12-13T18:04:30.436Z,8.00
2018-12-13T18:07:00.397Z,8.83
2018-12-13T18:09:27.933Z,7.70
2018-12-13T18:11:55.397Z,7.47
2018-12-13T18:14:22.891Z,9.35
2018-12-13T18:16:50.352Z,7.08
2018-12-13T18:19:17.827Z,8.40
2018-12-13T18:21:45.388Z,8.05
2018-12-13T18:24:12.872Z,8.93
2018-12-13T18:26:40.332Z,8.68
2018-12-13T18:29:07.804Z,7.85
2018-12-13T18:31:35.269Z,8.63
2018-12-13T18:34:02.740Z,8.85
2018-12-13T18:36:30.204Z,6.97
2018-12-13T18:38:57.682Z,9.05
2018-12-13T18:41:25.137Z,9.15
2018-12-13T18:43:52.873Z,9.28
2018-12-13T18:46:20.328Z,9.25
2018-12-13T18:48:47.833Z,7.45
2018-12-13T18:51:15.327Z,8.38
2018-12-13T18:53:42.804Z,9.60
2018-12-13T18:56:10.264Z,8.55
2018-12-13T18:58:37.771Z,6.80
2018-12-13T19:01:05.444Z,8.08
2018-12-13T19:03:33.009Z,7.45
2018-12-13T19:06:00.490Z,7.50
2018-12-13T19:08:28.239Z,8.08
2018-12-13T19:10:56.023Z,8.33
2018-12-13T19:13:23.498Z,8.30
2018-12-13T19:15:50.968Z,8.55
2018-12-13T19:18:18.444Z,7.80
2018-12-13T19:20:45.901Z,8.28
2018-12-13T19:23:13.377Z,7.12
2018-12-13T19:25:40.840Z,8.18
2018-12-13T19:28:08.392Z,8.40
2018-12-13T19:30:35.864Z,7.12
2018-12-13T19:33:03.392Z,8.35
2018-12-13T19:35:31.056Z,9.65
2018-12-13T19:37:58.509Z,8.98
2018-12-13T19:40:25.984Z,7.60
2018-12-13T19:42:53.441Z,8.03
2018-12-13T19:45:20.917Z,6.40
2018-12-13T19:47:48.374Z,8.60
2018-12-13T19:50:15.844Z,6.75
2018-12-13T19:52:43.296Z,8.48
2018-12-13T19:55:10.775Z,7.97
2018-12-13T19:57:38.238Z,8.08
2018-12-13T20:00:07.952Z,8.63
2018-12-13T20:02:35.461Z,8.20
2018-12-13T20:05:03.307Z,8.53
2018-12-13T20:07:30.764Z,8.30
2018-12-13T20:09:58.235Z,8.98
2018-12-13T20:12:25.774Z,8.80
2018-12-13T20:14:53.244Z,9.45
2018-12-13T20:17:20.700Z,9.30
2018-12-13T20:19:48.172Z,8.55
2018-12-13T20:22:15.637Z,9.70
2018-12-13T20:24:43.179Z,8.88
2018-12-13T20:27:10.639Z,7.85
2018-12-13T20:29:38.277Z,8.30
2018-12-13T20:32:05.736Z,7.95
2018-12-13T20:34:33.208Z,8.58
2018-12-13T20:37:00.677Z,8.50
2018-12-13T20:39:28.182Z,8.40
2018-12-13T20:41:55.633Z,8.08
2018-12-13T20:44:23.100Z,8.88
2018-12-13T20:46:50.575Z,8.58
2018-12-13T20:49:18.045Z,9.50
2018-12-13T20:51:45.715Z,8.55
2018-12-13T20:54:13.341Z,9.65
2018-12-13T20:56:40.799Z,9.60
2018-12-13T20:59:08.272Z,8.13
2018-12-13T21:01:35.733Z,8.75
2018-12-13T21:04:03.249Z,7.90
2018-12-13T21:06:30.703Z,9.10
2018-12-13T21:08:58.175Z,9.05
2018-12-13T21:11:25.940Z,7.60
2018-12-13T21:13:53.402Z,9.55
2018-12-13T21:16:20.869Z,9.13
2018-12-13T21:18:48.394Z,9.75
2018-12-13T21:21:15.871Z,10.53
2018-12-13T21:23:43.405Z,8.68
2018-12-13T21:26:10.880Z,9.55
2018-12-13T21:28:38.337Z,8.55
2018-12-13T21:31:05.808Z,9.00
2018-12-13T21:33:33.285Z,8.10
2018-12-13T21:36:00.748Z,8.03
2018-12-13T21:38:28.209Z,8.85
2018-12-13T21:40:55.685Z,7.87
2018-12-13T21:43:23.145Z,8.23
2018-12-13T21:45:50.624Z,8.15
2018-12-13T21:48:18.084Z,7.53
2018-12-13T21:50:45.554Z,7.33
2018-12-13T21:53:13.012Z,8.13
2018-12-13T21:55:40.487Z,8.28
2018-12-13T21:58:07.945Z,6.92
2018-12-13T22:00:35.417Z,9.35
2018-12-13T22:03:02.901Z,8.48
2018-12-13T22:05:30.364Z,8.65
2018-12-13T22:07:57.834Z,8.25
2018-12-13T22:10:25.287Z,8.40
2018-12-13T22:12:52.757Z,7.42
2018-12-13T22:15:20.218Z,8.05
2018-12-13T22:17:47.684Z,6.50
2018-12-13T22:20:15.149Z,7.90
2018-12-13T22:22:42.609Z,8.65
2018-12-13T22:25:10.093Z,8.83
2018-12-13T22:27:37.568Z,8.00
2018-12-13T22:30:05.874Z,7.12
2018-12-13T22:32:33.344Z,7.20
2018-12-13T22:35:00.796Z,8.48
2018-12-13T22:37:28.269Z,7.28
2018-12-13T22:39:55.734Z,8.15
2018-12-13T22:42:23.215Z,7.40
2018-12-13T22:44:50.668Z,9.53
2018-12-13T22:47:18.777Z,6.90
2018-12-13T22:49:46.257Z,7.60
2018-12-13T22:52:13.714Z,7.80
2018-12-13T22:54:41.732Z,8.98
2018-12-13T22:57:09.184Z,7.95
2018-12-13T22:59:36.687Z,7.40
2018-12-13T23:02:04.222Z,7.67
2018-12-13T23:04:31.704Z,7.25
2018-12-13T23:06:59.152Z,8.10
2018-12-13T23:09:26.620Z,8.73
2018-12-13T23:11:54.076Z,9.28
2018-12-13T23:14:21.545Z,9.58
2018-12-13T23:16:49.004Z,7.72
2018-12-13T23:19:16.489Z,10.80
2018-12-13T23:21:44.033Z,8.00
2018-12-13T23:24:11.506Z,8.18
2018-12-13T23:26:38.977Z,7.95
2018-12-13T23:29:06.456Z,9.38
2018-12-13T23:31:33.915Z,8.40
2018-12-13T23:34:01.383Z,9.95
2018-12-13T23:36:29.301Z,7.60
2018-12-13T23:38:56.784Z,8.50
2018-12-13T23:41:24.256Z,8.48
2018-12-13T23:43:51.724Z,9.33
2018-12-13T23:46:19.199Z,8.85
2018-12-13T23:48:46.653Z,7.78
2018-12-13T23:51:14.205Z,8.03
2018-12-13T23:53:41.719Z,8.75
2018-12-13T23:56:09.192Z,8.30
2018-12-13T23:58:37.461Z,8.25
